Pasadena, CA

9:19 AM PST on January 30, 2015 (GMT -0800)
North East Monrovia | Change Station
CLOSE
Current Station
Personal Weather Station
Location: Monrovia, CA
Elevation: 656 ft
Nearby Weather Stations

Elev 656 ft 34.15 °N, 117.99 °W | Updated 2 seconds ago

Overcast
Overcast
63.3 °F
Feels Like 63.3 °F
N
0.0
Wind Variable Wind from SSW
Gusts 0.0 mph

Today
High -- | Low -- °F
--% Chance of Precip.
Yesterday
High -- | Low -- °F
Precip. -- in
6:50 AM 5:20 PM
Waxing Gibbous, 84% visible
Pressure 29.90 in
Visibility 10.0 miles
Clouds Scattered Clouds 8000 ft
Overcast 10000 ft
Dew Point 48 °F
Humidity 51%
Rainfall 0.00 in
Snow Depth Not available.
UV 0 out of 12
Pollen 6.90 out of 12
Air Quality Not available.
Flu Activity Not available.
METAR KBUR 301653Z 00000KT 10SM SCT080 OVC100 16/10 A2992 RMK AO2 RAE42 SLP124 P0000 T01610100

More Conditions Fewer Conditions

Pressure 29.90 in
Visibility 10.0 miles
Clouds Scattered Clouds 8000 ft
Overcast 10000 ft
Dew Point 48 °F
Humidity 51%
Rainfall 0.00 in
Snow Depth Not available.
UV 0 out of 12
Pollen 6.90 out of 12
Air Quality Not available.
Flu Activity Not available.
METAR KBUR 301653Z 00000KT 10SM SCT080 OVC100 16/10 A2992 RMK AO2 RAE42 SLP124 P0000 T01610100

More Conditions Fewer Conditions

10-Day Weather Forecast

Almanac

Astronomy

Jan. 30, 2015 Rise Set
Actual Time
Civil Twilight
Nautical Twilight
Astronomical Twilight
Moon
Length of Visible Light
Length of Day
Tomorrow will be .
, % of the Moon is Illuminated

Today's Extremes

State Highs State Lows

Community

WunderPhotos

Upload Photos

1,791,825 photos uploaded!

WunderBlogs® & News

Nearby

Air Quality

  Air Quality AQ Index Pollutant
Not available.

Snow Depth

Station Depth Elevation

Earthquake Activity

City Distance Mag. Time & Date
Minimum magnitude displayed is 2.5.

Coastal Water Temperatures

Place Temperature

Nearby Weather Stations